createdAt,value
2018-07-27T00:00:12.520Z,0
2018-07-27T00:00:38.096Z,0
2018-07-27T00:01:03.675Z,0
2018-07-27T00:01:29.261Z,0
2018-07-27T00:01:54.874Z,0
2018-07-27T00:02:20.439Z,0
2018-07-27T00:02:46.031Z,0
2018-07-27T00:03:11.593Z,0
2018-07-27T00:03:37.206Z,0
2018-07-27T00:04:02.769Z,0
2018-07-27T00:04:28.364Z,0
2018-07-27T00:04:53.943Z,0
2018-07-27T00:05:19.515Z,0
2018-07-27T00:05:45.104Z,0
2018-07-27T00:06:10.670Z,0
2018-07-27T00:06:36.270Z,0
2018-07-27T00:07:01.842Z,0
2018-07-27T00:07:27.429Z,0
2018-07-27T00:07:53.009Z,0
2018-07-27T00:08:18.588Z,0
2018-07-27T00:08:44.175Z,0
2018-07-27T00:09:09.738Z,0
2018-07-27T00:09:35.349Z,0
2018-07-27T00:10:00.923Z,0
2018-07-27T00:10:26.513Z,0
2018-07-27T00:10:52.107Z,0
2018-07-27T00:11:17.691Z,0
2018-07-27T00:11:43.275Z,0
2018-07-27T00:12:08.856Z,0
2018-07-27T00:12:34.424Z,0
2018-07-27T00:13:00.001Z,0
2018-07-27T00:13:25.590Z,0
2018-07-27T00:13:51.171Z,0
2018-07-27T00:14:16.744Z,0
2018-07-27T00:14:42.326Z,0
2018-07-27T00:15:07.930Z,0
2018-07-27T00:15:33.505Z,0
2018-07-27T00:15:59.084Z,0
2018-07-27T00:16:24.654Z,0
2018-07-27T00:16:50.234Z,0
2018-07-27T00:17:15.808Z,0
2018-07-27T00:17:41.385Z,0
2018-07-27T00:18:06.961Z,0
2018-07-27T00:18:32.525Z,0
2018-07-27T00:18:58.103Z,0
2018-07-27T00:19:23.712Z,0
2018-07-27T00:19:49.265Z,0
2018-07-27T00:20:14.839Z,0
2018-07-27T00:20:40.408Z,0
2018-07-27T00:21:06.002Z,0
2018-07-27T00:21:31.577Z,0
2018-07-27T00:21:57.165Z,0
2018-07-27T00:22:22.726Z,0
2018-07-27T00:22:48.321Z,0
2018-07-27T00:23:13.890Z,0
2018-07-27T00:23:39.463Z,0
2018-07-27T00:24:05.063Z,0
2018-07-27T00:24:30.643Z,0
2018-07-27T00:24:56.266Z,0
2018-07-27T00:25:21.849Z,0
2018-07-27T00:25:47.426Z,0
2018-07-27T00:26:13.005Z,0
2018-07-27T00:26:38.578Z,0
2018-07-27T00:27:04.167Z,0
2018-07-27T00:27:29.739Z,0
2018-07-27T00:27:55.327Z,0
2018-07-27T00:28:20.919Z,0
2018-07-27T00:28:46.495Z,0
2018-07-27T00:29:12.063Z,0
2018-07-27T00:29:37.647Z,0
2018-07-27T00:30:03.237Z,0
2018-07-27T00:30:28.819Z,0
2018-07-27T00:30:54.393Z,0
2018-07-27T00:31:19.979Z,0
2018-07-27T00:31:45.571Z,0
2018-07-27T00:32:11.141Z,0
2018-07-27T00:32:36.715Z,0
2018-07-27T00:33:02.299Z,0
2018-07-27T00:33:27.898Z,0
2018-07-27T00:33:53.487Z,0
2018-07-27T00:34:19.061Z,0
2018-07-27T00:34:44.643Z,0
2018-07-27T00:35:10.211Z,0
2018-07-27T00:35:35.797Z,0
2018-07-27T00:36:01.385Z,0
2018-07-27T00:36:26.955Z,0
2018-07-27T00:36:52.515Z,0
2018-07-27T00:37:18.076Z,0
2018-07-27T00:37:43.661Z,0
2018-07-27T00:38:09.252Z,0
2018-07-27T00:38:34.825Z,0
2018-07-27T00:39:00.410Z,0
2018-07-27T00:39:25.974Z,0
2018-07-27T00:39:51.555Z,0
2018-07-27T00:40:17.140Z,0
2018-07-27T00:40:42.701Z,0
2018-07-27T00:41:08.335Z,0
2018-07-27T00:41:33.903Z,0
2018-07-27T00:41:59.493Z,0
2018-07-27T00:42:25.042Z,0
2018-07-27T00:42:50.619Z,0
2018-07-27T00:43:16.224Z,0
2018-07-27T00:43:41.795Z,0
2018-07-27T00:44:07.369Z,0
2018-07-27T00:44:32.948Z,0
2018-07-27T00:44:58.517Z,0
2018-07-27T00:45:24.085Z,0
2018-07-27T00:45:49.669Z,0
2018-07-27T00:46:15.243Z,0
2018-07-27T00:46:40.806Z,0
2018-07-27T00:47:06.381Z,0
2018-07-27T00:47:31.955Z,0
2018-07-27T00:47:57.521Z,0
2018-07-27T00:48:23.088Z,0
2018-07-27T00:48:48.657Z,0
2018-07-27T00:49:14.219Z,0
2018-07-27T00:49:39.793Z,0
2018-07-27T00:50:05.373Z,0
2018-07-27T00:50:30.954Z,0
2018-07-27T00:50:56.519Z,0
2018-07-27T00:51:22.117Z,0
2018-07-27T00:51:47.685Z,0
2018-07-27T00:52:13.259Z,0
2018-07-27T00:52:38.830Z,0
2018-07-27T00:53:04.405Z,0
2018-07-27T00:53:29.973Z,0
2018-07-27T00:53:55.571Z,0
2018-07-27T00:54:21.149Z,0
2018-07-27T00:54:46.719Z,0
2018-07-27T00:55:12.295Z,0
2018-07-27T00:55:37.880Z,0
2018-07-27T00:56:03.456Z,0
2018-07-27T00:56:29.016Z,0
2018-07-27T00:56:54.582Z,0
2018-07-27T00:57:20.160Z,0
2018-07-27T00:57:45.732Z,0
2018-07-27T00:58:11.313Z,0
2018-07-27T00:58:36.908Z,0
2018-07-27T00:59:02.479Z,0
2018-07-27T00:59:28.060Z,0
2018-07-27T00:59:53.643Z,0
2018-07-27T01:00:19.253Z,0
2018-07-27T01:00:44.839Z,0
2018-07-27T01:01:10.402Z,0
2018-07-27T01:01:35.976Z,0
2018-07-27T01:02:01.554Z,0
2018-07-27T01:02:27.117Z,0
2018-07-27T01:02:52.701Z,0
2018-07-27T01:03:18.267Z,0
2018-07-27T01:03:43.839Z,0
2018-07-27T01:04:09.418Z,0
2018-07-27T01:04:34.989Z,0
2018-07-27T01:05:00.537Z,0
2018-07-27T01:05:26.129Z,0
2018-07-27T01:05:51.697Z,0
2018-07-27T01:06:17.269Z,0
2018-07-27T01:06:42.841Z,0
2018-07-27T01:07:08.444Z,0
2018-07-27T01:07:34.021Z,0
2018-07-27T01:07:59.607Z,0
2018-07-27T01:08:25.184Z,0
2018-07-27T01:08:50.743Z,0
2018-07-27T01:09:16.323Z,0
2018-07-27T01:09:41.905Z,0
2018-07-27T01:10:07.473Z,0
2018-07-27T01:10:33.051Z,0
2018-07-27T01:10:58.630Z,0
2018-07-27T01:11:24.219Z,0
2018-07-27T01:11:49.825Z,0
2018-07-27T01:12:15.409Z,0
2018-07-27T01:12:40.987Z,0
2018-07-27T01:13:06.569Z,0
2018-07-27T01:13:32.131Z,0
2018-07-27T01:13:57.715Z,0
2018-07-27T01:14:23.307Z,0
2018-07-27T01:14:48.894Z,0
2018-07-27T01:15:14.471Z,0
2018-07-27T01:15:40.053Z,0
2018-07-27T01:16:05.646Z,0
2018-07-27T01:16:31.220Z,0
2018-07-27T01:16:56.804Z,0
2018-07-27T01:17:22.379Z,0
2018-07-27T01:17:47.958Z,0
2018-07-27T01:18:13.535Z,0
2018-07-27T01:18:39.120Z,0
2018-07-27T01:19:04.692Z,0
2018-07-27T01:19:30.256Z,0
2018-07-27T01:19:55.835Z,0
2018-07-27T01:20:21.417Z,0
2018-07-27T01:20:46.992Z,0
2018-07-27T01:21:12.568Z,0
2018-07-27T01:21:38.134Z,0
2018-07-27T01:22:03.715Z,0
2018-07-27T01:22:29.283Z,0
2018-07-27T01:22:54.858Z,0
2018-07-27T01:23:20.435Z,0
2018-07-27T01:23:46.006Z,0
2018-07-27T01:24:11.587Z,0
2018-07-27T01:24:37.156Z,0
2018-07-27T01:25:02.731Z,0
2018-07-27T01:25:28.311Z,0
2018-07-27T01:25:53.884Z,0
2018-07-27T01:26:19.462Z,0
2018-07-27T01:26:45.029Z,0
2018-07-27T01:27:10.605Z,0
2018-07-27T01:27:36.194Z,0
2018-07-27T01:28:01.766Z,0
2018-07-27T01:28:27.336Z,0
2018-07-27T01:28:52.910Z,0
2018-07-27T01:29:18.516Z,0
2018-07-27T01:29:44.083Z,0
2018-07-27T01:30:09.669Z,0
2018-07-27T01:30:35.240Z,0
2018-07-27T01:31:00.835Z,0
2018-07-27T01:31:26.402Z,0
2018-07-27T01:31:51.983Z,0
2018-07-27T01:32:17.554Z,0
2018-07-27T01:32:43.124Z,0
2018-07-27T01:33:08.686Z,0
2018-07-27T01:33:34.257Z,0
2018-07-27T01:33:59.825Z,0
2018-07-27T01:34:25.401Z,0
2018-07-27T01:34:51.000Z,0
2018-07-27T01:35:16.569Z,0
2018-07-27T01:35:42.162Z,0
2018-07-27T01:36:07.718Z,0
2018-07-27T01:36:33.294Z,0
2018-07-27T01:36:58.926Z,0
2018-07-27T01:37:24.500Z,0
2018-07-27T01:37:50.087Z,0
2018-07-27T01:38:15.655Z,0
2018-07-27T01:38:41.233Z,0
2018-07-27T01:39:06.814Z,0
2018-07-27T01:39:32.396Z,0
2018-07-27T01:39:57.986Z,0
2018-07-27T01:40:23.553Z,0
2018-07-27T01:40:49.131Z,0
2018-07-27T01:41:14.707Z,0
2018-07-27T01:41:40.273Z,0
2018-07-27T01:42:05.863Z,0
2018-07-27T01:42:31.448Z,0
2018-07-27T01:42:57.010Z,0
2018-07-27T01:43:22.592Z,0
2018-07-27T01:43:48.188Z,0
2018-07-27T01:44:13.750Z,0
2018-07-27T01:44:39.327Z,0
2018-07-27T01:45:04.902Z,0
2018-07-27T01:45:30.482Z,0
2018-07-27T01:45:56.057Z,0
2018-07-27T01:46:21.650Z,0
2018-07-27T01:46:47.284Z,0
2018-07-27T01:47:12.852Z,0
2018-07-27T01:47:38.418Z,0
2018-07-27T01:48:03.999Z,0
2018-07-27T01:48:29.574Z,0
2018-07-27T01:48:55.171Z,0
2018-07-27T01:49:20.749Z,0
2018-07-27T01:49:46.328Z,0
2018-07-27T01:50:11.893Z,0
2018-07-27T01:50:37.486Z,0
2018-07-27T01:51:03.069Z,0
2018-07-27T01:51:28.624Z,0
2018-07-27T01:51:54.200Z,0
2018-07-27T01:52:19.783Z,0
2018-07-27T01:52:45.348Z,0
2018-07-27T01:53:10.918Z,0
2018-07-27T01:53:36.489Z,0
2018-07-27T01:54:02.051Z,0
2018-07-27T01:54:27.629Z,0
2018-07-27T01:54:53.198Z,0
2018-07-27T01:55:18.829Z,0
2018-07-27T01:55:44.405Z,0
2018-07-27T01:56:09.998Z,0
2018-07-27T01:56:35.552Z,0
2018-07-27T01:57:01.130Z,0
2018-07-27T01:57:26.716Z,0
2018-07-27T01:57:52.298Z,0
2018-07-27T01:58:17.861Z,0
2018-07-27T01:58:43.448Z,0
2018-07-27T01:59:09.011Z,0
2018-07-27T01:59:34.584Z,0
2018-07-27T02:00:00.207Z,0
2018-07-27T02:00:25.779Z,0
2018-07-27T02:00:51.344Z,0
2018-07-27T02:01:16.919Z,0
2018-07-27T02:01:42.495Z,0
2018-07-27T02:02:08.076Z,0
2018-07-27T02:02:33.637Z,0
2018-07-27T02:02:59.228Z,0
2018-07-27T02:03:24.810Z,0
2018-07-27T02:03:50.388Z,0
2018-07-27T02:04:15.945Z,0
2018-07-27T02:04:41.540Z,0
2018-07-27T02:05:07.106Z,0
2018-07-27T02:05:32.695Z,0
2018-07-27T02:05:58.265Z,0
2018-07-27T02:06:23.840Z,0
2018-07-27T02:06:49.416Z,0
2018-07-27T02:07:15.004Z,0
2018-07-27T02:07:40.563Z,0
2018-07-27T02:08:06.130Z,0
2018-07-27T02:08:31.726Z,0
2018-07-27T02:08:57.294Z,0
2018-07-27T02:09:22.864Z,0
2018-07-27T02:09:48.446Z,0
2018-07-27T02:10:14.024Z,0
2018-07-27T02:10:39.600Z,0
2018-07-27T02:11:05.186Z,0
2018-07-27T02:11:30.761Z,0
2018-07-27T02:11:56.340Z,0
2018-07-27T02:12:21.912Z,0
2018-07-27T02:12:47.535Z,0
2018-07-27T02:13:13.105Z,0
2018-07-27T02:13:38.685Z,0
2018-07-27T02:14:04.259Z,0
2018-07-27T02:14:29.822Z,0
2018-07-27T02:14:55.397Z,0
2018-07-27T02:15:20.968Z,0
2018-07-27T02:15:46.542Z,0
2018-07-27T02:16:12.124Z,0
2018-07-27T02:16:38.872Z,0
2018-07-27T02:17:04.438Z,0
2018-07-27T02:17:30.014Z,0
2018-07-27T02:17:55.590Z,0
2018-07-27T02:18:21.180Z,0
2018-07-27T02:18:46.753Z,0
2018-07-27T02:19:12.325Z,0
2018-07-27T02:19:37.898Z,0
2018-07-27T02:20:03.480Z,0
2018-07-27T02:20:29.054Z,0
2018-07-27T02:20:54.642Z,0
2018-07-27T02:21:20.216Z,0
2018-07-27T02:21:45.798Z,0
2018-07-27T02:22:11.354Z,0
2018-07-27T02:22:36.946Z,0
2018-07-27T02:23:02.519Z,0
2018-07-27T02:23:28.155Z,0
2018-07-27T02:23:53.692Z,0
2018-07-27T02:24:19.279Z,0
2018-07-27T02:24:44.847Z,0
2018-07-27T02:25:10.428Z,0
2018-07-27T02:25:36.006Z,0
2018-07-27T02:26:01.581Z,0
2018-07-27T02:26:27.162Z,0
2018-07-27T02:26:52.738Z,0
2018-07-27T02:27:18.306Z,0
2018-07-27T02:27:43.894Z,0
2018-07-27T02:28:09.470Z,0
2018-07-27T02:28:35.047Z,0
2018-07-27T02:29:00.602Z,0
2018-07-27T02:29:26.184Z,0
2018-07-27T02:29:51.746Z,0
2018-07-27T02:30:17.324Z,0
2018-07-27T02:30:42.904Z,0
2018-07-27T02:31:08.476Z,0
2018-07-27T02:31:34.069Z,0
2018-07-27T02:31:59.642Z,0
2018-07-27T02:32:25.220Z,0
2018-07-27T02:32:50.794Z,0
2018-07-27T02:33:16.370Z,0
2018-07-27T02:33:42.045Z,0
2018-07-27T02:34:07.546Z,0
2018-07-27T02:34:33.114Z,0
2018-07-27T02:34:58.686Z,0
2018-07-27T02:35:24.252Z,0
2018-07-27T02:35:49.838Z,0
2018-07-27T02:36:15.404Z,0
2018-07-27T02:36:40.974Z,0
2018-07-27T02:37:06.550Z,0
2018-07-27T02:37:32.118Z,0
2018-07-27T02:37:57.710Z,0
2018-07-27T02:38:23.286Z,0
2018-07-27T02:38:48.870Z,0
2018-07-27T02:39:14.429Z,0
2018-07-27T02:39:40.030Z,0
2018-07-27T02:40:05.695Z,0
2018-07-27T02:40:31.179Z,0
2018-07-27T02:40:56.815Z,0
2018-07-27T02:41:22.318Z,0
2018-07-27T02:41:47.903Z,0
2018-07-27T02:42:13.476Z,0
2018-07-27T02:42:39.102Z,0
2018-07-27T02:43:04.661Z,0
2018-07-27T02:43:30.234Z,0
2018-07-27T02:43:55.805Z,0
2018-07-27T02:44:21.422Z,0
2018-07-27T02:44:46.982Z,0
2018-07-27T02:45:12.566Z,0
2018-07-27T02:45:38.129Z,0
2018-07-27T02:46:03.693Z,0
2018-07-27T02:46:29.262Z,0
2018-07-27T02:46:54.827Z,0
2018-07-27T02:47:20.411Z,0
2018-07-27T02:47:45.956Z,0
2018-07-27T02:48:11.512Z,0
2018-07-27T02:48:37.090Z,0
2018-07-27T02:49:02.652Z,0
2018-07-27T02:49:28.246Z,0
2018-07-27T02:49:53.819Z,0
2018-07-27T02:50:19.400Z,0
2018-07-27T02:50:44.962Z,0
2018-07-27T02:51:10.569Z,0
2018-07-27T02:51:36.135Z,0
2018-07-27T02:52:01.711Z,0
2018-07-27T02:52:27.282Z,0
2018-07-27T02:52:52.889Z,0
2018-07-27T02:53:18.462Z,0
2018-07-27T02:53:44.045Z,0
2018-07-27T02:54:09.618Z,0
2018-07-27T02:54:35.204Z,0
2018-07-27T02:55:00.796Z,0
2018-07-27T02:55:26.369Z,0
2018-07-27T02:55:51.917Z,0
2018-07-27T02:56:17.491Z,0
2018-07-27T02:56:43.066Z,0
2018-07-27T02:57:08.631Z,0
2018-07-27T02:57:34.221Z,0
2018-07-27T02:57:59.797Z,0
2018-07-27T02:58:25.378Z,0
2018-07-27T02:58:50.944Z,0
2018-07-27T02:59:16.520Z,0
2018-07-27T02:59:42.097Z,0
2018-07-27T03:00:07.666Z,0
2018-07-27T03:00:33.240Z,0
2018-07-27T03:00:58.807Z,0
2018-07-27T03:01:24.375Z,0
2018-07-27T03:01:49.957Z,0
2018-07-27T03:02:15.522Z,0
2018-07-27T03:02:41.090Z,0
2018-07-27T03:03:06.652Z,0
2018-07-27T03:03:32.221Z,0
2018-07-27T03:03:57.792Z,0
2018-07-27T03:04:23.380Z,0
2018-07-27T03:04:48.956Z,0
2018-07-27T03:05:14.522Z,0
2018-07-27T03:05:40.089Z,0
2018-07-27T03:06:05.678Z,0
2018-07-27T03:06:31.250Z,0
2018-07-27T03:06:56.818Z,0
2018-07-27T03:07:22.410Z,0
2018-07-27T03:07:47.982Z,0
2018-07-27T03:08:13.538Z,0
2018-07-27T03:08:39.151Z,0
2018-07-27T03:09:04.718Z,0
2018-07-27T03:09:30.300Z,0
2018-07-27T03:09:55.865Z,0
2018-07-27T03:10:21.446Z,0
2018-07-27T03:10:47.018Z,0
2018-07-27T03:11:12.583Z,0
2018-07-27T03:11:38.146Z,0
2018-07-27T03:12:03.709Z,0
2018-07-27T03:12:29.298Z,0
2018-07-27T03:12:54.876Z,0
2018-07-27T03:13:20.515Z,0
2018-07-27T03:13:46.082Z,0
2018-07-27T03:14:11.649Z,0
2018-07-27T03:14:37.208Z,0
2018-07-27T03:15:03.365Z,0
2018-07-27T03:15:28.395Z,0
2018-07-27T03:15:53.980Z,0
2018-07-27T03:16:19.554Z,0
2018-07-27T03:16:45.122Z,0
2018-07-27T03:17:10.702Z,0
2018-07-27T03:17:36.277Z,0
2018-07-27T03:18:01.853Z,0
2018-07-27T03:18:27.428Z,0
2018-07-27T03:18:53.000Z,0
2018-07-27T03:19:18.578Z,0
2018-07-27T03:19:44.143Z,0
2018-07-27T03:20:09.715Z,0
2018-07-27T03:20:35.286Z,0
2018-07-27T03:21:00.869Z,0
2018-07-27T03:21:26.446Z,0
2018-07-27T03:21:52.042Z,0
2018-07-27T03:22:17.621Z,0
2018-07-27T03:22:43.196Z,0
2018-07-27T03:23:08.770Z,0
2018-07-27T03:23:34.341Z,0
2018-07-27T03:23:59.900Z,0
2018-07-27T03:24:25.470Z,0
2018-07-27T03:24:51.047Z,0
2018-07-27T03:25:16.636Z,0
2018-07-27T03:25:42.209Z,0
2018-07-27T03:26:07.772Z,0
2018-07-27T03:26:33.335Z,0
2018-07-27T03:26:58.912Z,0
2018-07-27T03:27:24.468Z,0
2018-07-27T03:27:50.048Z,0
2018-07-27T03:28:15.617Z,0
2018-07-27T03:28:41.191Z,0
2018-07-27T03:29:06.753Z,0
2018-07-27T03:29:32.330Z,0
2018-07-27T03:29:57.914Z,0
2018-07-27T03:30:23.498Z,0
2018-07-27T03:30:49.072Z,0
2018-07-27T03:31:14.652Z,0
2018-07-27T03:31:40.230Z,0
2018-07-27T03:32:05.806Z,0
2018-07-27T03:32:31.366Z,0
2018-07-27T03:32:56.933Z,0
2018-07-27T03:33:22.509Z,0
2018-07-27T03:33:48.108Z,0
2018-07-27T03:34:13.687Z,0
2018-07-27T03:34:39.250Z,0
2018-07-27T03:35:04.848Z,0
2018-07-27T03:35:30.433Z,0
2018-07-27T03:35:55.998Z,0
2018-07-27T03:36:21.566Z,4
2018-07-27T03:36:47.163Z,4
2018-07-27T03:37:12.728Z,4
2018-07-27T03:37:38.289Z,4
2018-07-27T03:38:03.904Z,4
2018-07-27T03:38:29.428Z,4
2018-07-27T03:38:55.023Z,4
2018-07-27T03:39:20.628Z,4
2018-07-27T03:39:46.200Z,4
2018-07-27T03:40:11.774Z,4
2018-07-27T03:40:37.347Z,4
2018-07-27T03:41:02.919Z,4
2018-07-27T03:41:28.500Z,0
2018-07-27T03:41:54.084Z,0
2018-07-27T03:42:19.660Z,0
2018-07-27T03:42:45.235Z,0
2018-07-27T03:43:10.806Z,0
2018-07-27T03:43:36.384Z,0
2018-07-27T03:44:01.964Z,0
2018-07-27T03:44:27.534Z,0
2018-07-27T03:44:53.108Z,0
2018-07-27T03:45:18.689Z,0
2018-07-27T03:45:44.270Z,0
2018-07-27T03:46:09.858Z,0
2018-07-27T03:46:35.432Z,4
2018-07-27T03:47:01.011Z,4
2018-07-27T03:47:26.615Z,4
2018-07-27T03:47:52.192Z,4
2018-07-27T03:48:17.779Z,4
2018-07-27T03:48:43.368Z,4
2018-07-27T03:49:08.943Z,4
2018-07-27T03:49:34.510Z,4
2018-07-27T03:50:00.089Z,4
2018-07-27T03:50:25.669Z,4
2018-07-27T03:50:51.241Z,4
2018-07-27T03:51:16.820Z,4
2018-07-27T03:51:42.383Z,4
2018-07-27T03:52:08.021Z,4
2018-07-27T03:52:33.608Z,4
2018-07-27T03:52:59.180Z,4
2018-07-27T03:53:24.748Z,4
2018-07-27T03:53:50.316Z,4
2018-07-27T03:54:15.902Z,4
2018-07-27T03:54:41.472Z,4
2018-07-27T03:55:07.086Z,4
2018-07-27T03:55:32.682Z,4
2018-07-27T03:55:58.256Z,4
2018-07-27T03:56:23.840Z,4
2018-07-27T03:56:49.428Z,4
2018-07-27T03:57:15.011Z,4
2018-07-27T03:57:40.590Z,4
2018-07-27T03:58:06.167Z,4
2018-07-27T03:58:31.753Z,4
2018-07-27T03:58:57.315Z,4
2018-07-27T03:59:22.886Z,4
2018-07-27T03:59:48.462Z,4
2018-07-27T04:00:14.036Z,4
2018-07-27T04:00:39.631Z,4
2018-07-27T04:01:05.220Z,4
2018-07-27T04:01:30.801Z,4
2018-07-27T04:01:56.390Z,4
2018-07-27T04:02:22.013Z,4
2018-07-27T04:02:47.530Z,4
2018-07-27T04:03:13.104Z,8
2018-07-27T04:03:38.688Z,8
2018-07-27T04:04:04.264Z,8
2018-07-27T04:04:29.836Z,8
2018-07-27T04:04:55.398Z,8
2018-07-27T04:05:21.025Z,8
2018-07-27T04:05:46.592Z,8
2018-07-27T04:06:12.161Z,8
2018-07-27T04:06:37.765Z,8
2018-07-27T04:07:03.344Z,8
2018-07-27T04:07:28.912Z,8
2018-07-27T04:07:54.483Z,8
2018-07-27T04:08:20.070Z,8
2018-07-27T04:08:45.650Z,4
2018-07-27T04:09:11.220Z,4
2018-07-27T04:09:36.787Z,4
2018-07-27T04:10:02.367Z,4
2018-07-27T04:10:27.955Z,4
2018-07-27T04:10:53.528Z,4
2018-07-27T04:11:19.106Z,4
2018-07-27T04:11:44.671Z,8
2018-07-27T04:12:10.234Z,8
2018-07-27T04:12:35.811Z,8
2018-07-27T04:13:01.377Z,8
2018-07-27T04:13:26.960Z,8
2018-07-27T04:13:52.538Z,8
2018-07-27T04:14:18.100Z,8
2018-07-27T04:14:43.666Z,8
2018-07-27T04:15:09.245Z,8
2018-07-27T04:15:34.818Z,8
2018-07-27T04:16:00.396Z,8
2018-07-27T04:16:25.969Z,8
2018-07-27T04:16:51.547Z,8
2018-07-27T04:17:17.120Z,8
2018-07-27T04:17:42.713Z,8
2018-07-27T04:18:08.296Z,8
2018-07-27T04:18:33.903Z,8
2018-07-27T04:18:59.477Z,8
2018-07-27T04:19:25.074Z,8
2018-07-27T04:19:50.620Z,12
2018-07-27T04:20:16.186Z,12
2018-07-27T04:20:41.768Z,12
2018-07-27T04:21:07.340Z,12
2018-07-27T04:21:32.902Z,12
2018-07-27T04:21:58.496Z,12
2018-07-27T04:22:24.111Z,12
2018-07-27T04:22:49.715Z,8
2018-07-27T04:23:15.318Z,8
2018-07-27T04:23:40.906Z,8
2018-07-27T04:24:06.477Z,8
2018-07-27T04:24:32.034Z,8
2018-07-27T04:24:57.593Z,8
2018-07-27T04:25:23.160Z,8
2018-07-27T04:25:48.743Z,12
2018-07-27T04:26:14.300Z,12
2018-07-27T04:26:39.892Z,12
2018-07-27T04:27:05.466Z,12
2018-07-27T04:27:31.042Z,12
2018-07-27T04:27:56.582Z,12
2018-07-27T04:28:22.151Z,12
2018-07-27T04:28:47.719Z,12
2018-07-27T04:29:13.256Z,12
2018-07-27T04:29:38.844Z,8
2018-07-27T04:30:04.375Z,8
2018-07-27T04:30:29.952Z,12
2018-07-27T04:30:55.530Z,12
2018-07-27T04:31:21.173Z,12
2018-07-27T04:31:46.750Z,12
2018-07-27T04:32:12.317Z,12
2018-07-27T04:32:37.891Z,12
2018-07-27T04:33:03.468Z,12
2018-07-27T04:33:29.037Z,12
2018-07-27T04:33:54.606Z,12
2018-07-27T04:34:20.180Z,12
2018-07-27T04:34:45.758Z,12
2018-07-27T04:35:11.332Z,12
2018-07-27T04:35:36.943Z,16
2018-07-27T04:36:02.522Z,16
2018-07-27T04:36:28.096Z,12
2018-07-27T04:36:53.661Z,12
2018-07-27T04:37:19.232Z,12
2018-07-27T04:37:44.806Z,12
2018-07-27T04:38:10.378Z,12
2018-07-27T04:38:35.939Z,12
2018-07-27T04:39:01.514Z,12
2018-07-27T04:39:27.090Z,12
2018-07-27T04:39:52.677Z,12
2018-07-27T04:40:18.256Z,12
2018-07-27T04:40:43.834Z,12
2018-07-27T04:41:09.414Z,12
2018-07-27T04:41:34.990Z,12
2018-07-27T04:42:00.569Z,12
2018-07-27T04:42:26.142Z,12
2018-07-27T04:42:51.811Z,12
2018-07-27T04:43:17.349Z,12
2018-07-27T04:43:43.111Z,16
2018-07-27T04:44:08.694Z,32
2018-07-27T04:44:34.288Z,32
2018-07-27T04:44:59.852Z,32
2018-07-27T04:45:25.438Z,32
2018-07-27T04:45:51.008Z,32
2018-07-27T04:46:16.605Z,32
2018-07-27T04:46:42.166Z,32
2018-07-27T04:47:07.815Z,32
2018-07-27T04:47:33.421Z,32
2018-07-27T04:47:59.002Z,32
2018-07-27T04:48:24.619Z,36
2018-07-27T04:48:50.191Z,32
2018-07-27T04:49:15.751Z,32
2018-07-27T04:49:41.332Z,32
2018-07-27T04:50:06.892Z,32
2018-07-27T04:50:32.469Z,32
2018-07-27T04:50:58.035Z,32
2018-07-27T04:51:23.619Z,32
2018-07-27T04:51:49.196Z,32
2018-07-27T04:52:14.815Z,32
2018-07-27T04:52:40.405Z,36
2018-07-27T04:53:06.027Z,36
2018-07-27T04:53:31.603Z,36
2018-07-27T04:53:57.191Z,36
2018-07-27T04:54:22.789Z,36
2018-07-27T04:54:48.353Z,36
2018-07-27T04:55:13.909Z,36
2018-07-27T04:55:39.519Z,36
2018-07-27T04:56:05.110Z,36
2018-07-27T04:56:30.749Z,36
2018-07-27T04:56:56.276Z,32
2018-07-27T04:57:21.842Z,32
2018-07-27T04:57:47.423Z,32
2018-07-27T04:58:12.999Z,36
2018-07-27T04:58:38.590Z,36
2018-07-27T04:59:04.166Z,36
2018-07-27T04:59:29.733Z,36
2018-07-27T04:59:55.309Z,36
2018-07-27T05:00:20.895Z,36
2018-07-27T05:00:46.467Z,36
2018-07-27T05:01:12.036Z,36
2018-07-27T05:01:37.687Z,36
2018-07-27T05:02:03.268Z,36
2018-07-27T05:02:28.837Z,36
2018-07-27T05:02:54.415Z,40
2018-07-27T05:03:19.973Z,40
2018-07-27T05:03:45.550Z,40
2018-07-27T05:04:11.133Z,36
2018-07-27T05:04:36.769Z,36
2018-07-27T05:05:02.275Z,36
2018-07-27T05:05:27.853Z,36
2018-07-27T05:05:53.416Z,36
2018-07-27T05:06:18.981Z,36
2018-07-27T05:06:45.764Z,40
2018-07-27T05:07:11.347Z,40
2018-07-27T05:07:36.925Z,40
2018-07-27T05:08:02.570Z,40
2018-07-27T05:08:28.144Z,40
2018-07-27T05:08:53.766Z,40
2018-07-27T05:09:19.326Z,40
2018-07-27T05:09:44.915Z,40
2018-07-27T05:10:10.499Z,36
2018-07-27T05:10:36.077Z,36
2018-07-27T05:11:01.686Z,36
2018-07-27T05:11:27.261Z,40
2018-07-27T05:11:52.845Z,40
2018-07-27T05:12:18.414Z,40
2018-07-27T05:12:43.994Z,40
2018-07-27T05:13:09.567Z,40
2018-07-27T05:13:35.175Z,40
2018-07-27T05:14:00.744Z,40
2018-07-27T05:14:26.322Z,40
2018-07-27T05:14:51.894Z,40
2018-07-27T05:15:17.471Z,40
2018-07-27T05:15:43.041Z,40
2018-07-27T05:16:08.613Z,40
2018-07-27T05:16:34.197Z,40
2018-07-27T05:16:59.771Z,40
2018-07-27T05:17:25.335Z,44
2018-07-27T05:17:50.919Z,44
2018-07-27T05:18:16.619Z,44
2018-07-27T05:18:42.068Z,44
2018-07-27T05:19:07.662Z,40
2018-07-27T05:19:33.228Z,40
2018-07-27T05:19:58.816Z,40
2018-07-27T05:20:24.386Z,40
2018-07-27T05:20:51.274Z,40
2018-07-27T05:21:16.869Z,40
2018-07-27T05:21:42.442Z,40
2018-07-27T05:22:08.027Z,40
2018-07-27T05:22:33.615Z,40
2018-07-27T05:22:59.167Z,40
2018-07-27T05:23:24.791Z,40
2018-07-27T05:23:50.368Z,40
2018-07-27T05:24:15.934Z,40
2018-07-27T05:24:41.619Z,44
2018-07-27T05:25:07.100Z,44
2018-07-27T05:25:32.682Z,44
2018-07-27T05:25:58.269Z,44
2018-07-27T05:26:23.832Z,44
2018-07-27T05:26:49.419Z,40
2018-07-27T05:27:14.994Z,44
2018-07-27T05:27:40.532Z,48
2018-07-27T05:28:06.119Z,48
2018-07-27T05:28:33.949Z,52
2018-07-27T05:28:58.604Z,52
2018-07-27T05:29:24.953Z,52
2018-07-27T05:29:49.769Z,56
2018-07-27T05:30:15.358Z,56
2018-07-27T05:30:40.964Z,60
2018-07-27T05:31:06.507Z,64
2018-07-27T05:31:32.079Z,68
2018-07-27T05:31:57.675Z,68
2018-07-27T05:32:23.250Z,72
2018-07-27T05:32:48.842Z,76
2018-07-27T05:33:14.410Z,80
2018-07-27T05:33:39.991Z,84
2018-07-27T05:34:05.576Z,84
2018-07-27T05:34:31.157Z,88
2018-07-27T05:34:56.729Z,88
2018-07-27T05:35:22.313Z,92
2018-07-27T05:35:47.891Z,92
2018-07-27T05:36:13.442Z,96
2018-07-27T05:36:38.990Z,96
2018-07-27T05:37:04.573Z,96
2018-07-27T05:37:30.163Z,100
2018-07-27T05:37:55.750Z,100
2018-07-27T05:38:21.306Z,104
2018-07-27T05:38:46.888Z,104
2018-07-27T05:39:12.450Z,108
2018-07-27T05:39:38.020Z,104
2018-07-27T05:40:03.583Z,108
2018-07-27T05:40:29.168Z,112
2018-07-27T05:40:54.746Z,112
2018-07-27T05:41:20.306Z,116
2018-07-27T05:41:45.892Z,116
2018-07-27T05:42:11.476Z,116
2018-07-27T05:42:37.041Z,120
2018-07-27T05:43:02.626Z,116
2018-07-27T05:43:28.193Z,120
2018-07-27T05:43:53.772Z,116
2018-07-27T05:44:19.341Z,116
2018-07-27T05:44:44.914Z,120
2018-07-27T05:45:10.508Z,116
2018-07-27T05:45:36.072Z,116
2018-07-27T05:46:01.694Z,120
2018-07-27T05:46:27.259Z,120
2018-07-27T05:46:52.902Z,120
2018-07-27T05:47:18.420Z,120
2018-07-27T05:47:44.005Z,120
2018-07-27T05:48:09.591Z,116
2018-07-27T05:48:35.973Z,116
2018-07-27T05:49:00.788Z,116
2018-07-27T05:49:26.366Z,116
2018-07-27T05:49:51.941Z,112
2018-07-27T05:50:17.506Z,116
2018-07-27T05:50:43.092Z,116
2018-07-27T05:51:08.661Z,116
2018-07-27T05:51:34.246Z,116
2018-07-27T05:51:59.839Z,116
2018-07-27T05:52:25.426Z,116
2018-07-27T05:52:51.010Z,116
2018-07-27T05:53:16.542Z,112
2018-07-27T05:53:42.131Z,112
2018-07-27T05:54:07.689Z,112
2018-07-27T05:54:33.317Z,116
2018-07-27T05:54:58.894Z,116
2018-07-27T05:55:24.459Z,116
2018-07-27T05:55:50.033Z,116
2018-07-27T05:56:15.620Z,116
2018-07-27T05:56:41.199Z,116
2018-07-27T05:57:06.788Z,112
2018-07-27T05:57:32.372Z,112
2018-07-27T05:57:58.472Z,116
2018-07-27T05:58:23.522Z,116
2018-07-27T05:58:49.115Z,116
2018-07-27T05:59:14.679Z,112
2018-07-27T05:59:40.264Z,112
2018-07-27T06:00:05.827Z,112
2018-07-27T06:00:31.408Z,112
2018-07-27T06:00:56.955Z,116
2018-07-27T06:01:22.551Z,112
2018-07-27T06:01:48.127Z,112
2018-07-27T06:02:13.688Z,112
2018-07-27T06:02:39.311Z,112
2018-07-27T06:03:04.858Z,112
2018-07-27T06:03:30.426Z,112
2018-07-27T06:03:56.005Z,112
2018-07-27T06:04:21.575Z,112
2018-07-27T06:04:47.223Z,108
2018-07-27T06:05:12.773Z,112
2018-07-27T06:05:38.353Z,108
2018-07-27T06:06:03.946Z,108
2018-07-27T06:06:29.531Z,108
2018-07-27T06:06:55.107Z,108
2018-07-27T06:07:20.671Z,112
2018-07-27T06:07:46.299Z,108
2018-07-27T06:08:11.857Z,108
2018-07-27T06:08:37.419Z,108
2018-07-27T06:09:02.998Z,108
2018-07-27T06:09:28.569Z,108
2018-07-27T06:09:54.142Z,108
2018-07-27T06:10:19.753Z,108
2018-07-27T06:10:45.358Z,108
2018-07-27T06:11:10.980Z,108
2018-07-27T06:11:36.521Z,108
2018-07-27T06:12:02.107Z,108
2018-07-27T06:12:27.703Z,108
2018-07-27T06:12:53.277Z,108